createdAt,value
2019-02-05T00:01:02.942Z,63.14
2019-02-05T00:03:36.301Z,63.52
2019-02-05T00:06:11.162Z,63.92
2019-02-05T00:08:44.631Z,64.08
2019-02-05T00:11:17.950Z,64.02
2019-02-05T00:13:51.217Z,64.35
2019-02-05T00:16:24.502Z,64.25
2019-02-05T00:18:57.795Z,64.68
2019-02-05T00:21:31.091Z,64.58
2019-02-05T00:24:04.986Z,64.38
2019-02-05T00:26:38.839Z,64.68
2019-02-05T00:29:12.109Z,64.48
2019-02-05T00:31:45.410Z,64.65
2019-02-05T00:34:18.688Z,64.76
2019-02-05T00:36:52.001Z,64.39
2019-02-05T00:39:25.305Z,64.43
2019-02-05T00:41:58.974Z,63.93
2019-02-05T00:44:32.241Z,63.75
2019-02-05T00:47:06.199Z,63.89
2019-02-05T00:49:39.507Z,64.35
2019-02-05T00:52:12.786Z,65.06
2019-02-05T00:54:46.093Z,65.88
2019-02-05T00:57:19.409Z,66.21
2019-02-05T00:59:52.705Z,66.37
2019-02-05T01:02:25.989Z,67.32
2019-02-05T01:04:59.543Z,69.16
2019-02-05T01:07:32.917Z,68.75
2019-02-05T01:10:08.335Z,69.17
2019-02-05T01:12:41.731Z,69.45
2019-02-05T01:15:20.673Z,70.19
2019-02-05T01:17:54.104Z,70.16
2019-02-05T01:20:27.443Z,70.63
2019-02-05T01:23:00.731Z,71.43
2019-02-05T01:25:34.365Z,70.67
2019-02-05T01:28:07.775Z,70.78
2019-02-05T01:30:41.043Z,71.12
2019-02-05T01:33:14.352Z,71.78
2019-02-05T01:35:47.612Z,72.45
2019-02-05T01:38:20.920Z,72.85
2019-02-05T01:40:54.264Z,73.34
2019-02-05T01:43:27.565Z,73.85
2019-02-05T01:46:00.851Z,74.04
2019-02-05T01:48:34.339Z,73.17
2019-02-05T01:51:07.610Z,73.09
2019-02-05T01:53:41.985Z,73.54
2019-02-05T01:56:15.263Z,74.16
2019-02-05T01:58:48.565Z,75.48
2019-02-05T02:01:21.859Z,76.38
2019-02-05T02:03:55.173Z,77.50
2019-02-05T02:06:28.603Z,77.95
2019-02-05T02:09:01.852Z,77.58
2019-02-05T02:11:35.481Z,78.08
2019-02-05T02:14:08.757Z,78.50
2019-02-05T02:16:42.068Z,78.87
2019-02-05T02:19:15.358Z,79.18
2019-02-05T02:21:50.225Z,79.99
2019-02-05T02:24:23.511Z,80.12
2019-02-05T02:26:56.872Z,76.26
2019-02-05T02:29:30.171Z,74.04
2019-02-05T02:32:03.548Z,73.46
2019-02-05T02:34:36.821Z,72.97
2019-02-05T02:37:10.124Z,73.29
2019-02-05T02:39:44.603Z,74.21
2019-02-05T02:42:17.901Z,75.05
2019-02-05T02:44:51.826Z,76.75
2019-02-05T02:47:27.756Z,76.26
2019-02-05T02:50:00.227Z,76.13
2019-02-05T02:52:33.530Z,75.57
2019-02-05T02:55:07.725Z,74.60
2019-02-05T02:57:41.981Z,75.26
2019-02-05T03:00:18.442Z,76.20
2019-02-05T03:02:52.024Z,75.39
2019-02-05T03:05:25.473Z,74.54
2019-02-05T03:07:58.763Z,74.53
2019-02-05T03:10:32.147Z,74.95
2019-02-05T03:13:05.471Z,75.82
2019-02-05T03:15:38.761Z,77.05
2019-02-05T03:18:12.062Z,78.16
2019-02-05T03:20:45.360Z,78.51
2019-02-05T03:23:18.720Z,79.24
2019-02-05T03:25:52.116Z,79.21
2019-02-05T03:28:25.413Z,79.24
2019-02-05T03:30:58.735Z,78.09
2019-02-05T03:33:32.048Z,77.66
2019-02-05T03:36:05.602Z,75.59
2019-02-05T03:38:38.960Z,75.75
2019-02-05T03:41:13.807Z,75.16
2019-02-05T03:43:47.176Z,74.55
2019-02-05T03:46:21.056Z,74.45
2019-02-05T03:48:55.233Z,75.39
2019-02-05T03:51:31.680Z,75.11
2019-02-05T03:54:29.005Z,74.71
2019-02-05T03:57:11.333Z,74.73
2019-02-05T03:59:56.710Z,74.33
2019-02-05T04:02:42.217Z,74.74
2019-02-05T04:05:34.884Z,75.19
2019-02-05T04:08:27.693Z,75.92
2019-02-05T04:11:20.581Z,75.33
2019-02-05T04:14:00.040Z,75.50
2019-02-05T04:16:51.632Z,76.89
2019-02-05T04:19:33.864Z,76.15
2019-02-05T04:22:27.160Z,77.60
2019-02-05T04:25:35.821Z,78.71
2019-02-05T04:28:34.876Z,79.02
2019-02-05T04:31:17.209Z,80.67
2019-02-05T04:33:59.478Z,80.80
2019-02-05T04:36:44.488Z,80.30
2019-02-05T04:39:43.835Z,80.41
2019-02-05T04:42:20.311Z,80.74
2019-02-05T04:45:08.798Z,79.72
2019-02-05T04:48:01.731Z,78.43
2019-02-05T04:50:38.585Z,78.69
2019-02-05T04:53:30.148Z,79.12
2019-02-05T04:56:18.430Z,79.66
2019-02-05T04:58:57.749Z,77.89
2019-02-05T05:01:34.221Z,77.08
2019-02-05T05:04:22.374Z,77.16
2019-02-05T05:07:10.675Z,76.92
2019-02-05T05:09:55.426Z,77.87
2019-02-05T05:12:29.071Z,77.28
2019-02-05T05:15:02.384Z,77.36
2019-02-05T05:17:35.754Z,76.64
2019-02-05T05:20:10.970Z,76.28
2019-02-05T05:22:45.038Z,76.13
2019-02-05T05:25:20.104Z,76.27
2019-02-05T05:27:55.025Z,76.17
2019-02-05T05:30:28.434Z,76.29
2019-02-05T05:33:02.985Z,76.31
2019-02-05T05:35:43.433Z,76.28
2019-02-05T05:38:11.532Z,76.38
2019-02-05T05:40:44.885Z,76.91
2019-02-05T05:43:18.192Z,76.42
2019-02-05T05:45:51.475Z,76.35
2019-02-05T05:48:24.812Z,76.73
2019-02-05T05:50:58.174Z,76.52
2019-02-05T05:53:31.479Z,76.86
2019-02-05T05:56:04.853Z,76.70
2019-02-05T05:58:38.241Z,77.48
2019-02-05T06:01:11.535Z,77.79
2019-02-05T06:03:44.835Z,77.42
2019-02-05T06:06:18.101Z,77.90
2019-02-05T06:08:51.446Z,78.50
2019-02-05T06:11:25.170Z,78.37
2019-02-05T06:13:58.463Z,78.35
2019-02-05T06:16:31.775Z,78.45
2019-02-05T06:19:05.164Z,78.28
2019-02-05T06:21:38.477Z,78.27
2019-02-05T06:24:11.865Z,78.16
2019-02-05T06:26:45.224Z,78.16
2019-02-05T06:29:18.556Z,78.15
2019-02-05T06:31:51.844Z,78.24
2019-02-05T06:34:25.244Z,78.20
2019-02-05T06:36:58.542Z,78.06
2019-02-05T06:39:31.836Z,77.84
2019-02-05T06:42:05.191Z,77.84
2019-02-05T06:44:38.477Z,77.59
2019-02-05T06:47:11.952Z,77.83
2019-02-05T06:49:45.340Z,78.37
2019-02-05T06:52:18.638Z,78.28
2019-02-05T06:54:51.932Z,77.91
2019-02-05T06:57:25.226Z,77.38
2019-02-05T06:59:58.554Z,77.56
2019-02-05T07:02:31.855Z,77.38
2019-02-05T07:05:08.570Z,77.23
2019-02-05T07:07:41.995Z,76.93
2019-02-05T07:10:18.704Z,76.65
2019-02-05T07:12:52.049Z,76.83
2019-02-05T07:15:25.385Z,76.40
2019-02-05T07:17:58.655Z,76.29
2019-02-05T07:20:31.951Z,75.94
2019-02-05T07:23:05.305Z,75.75
2019-02-05T07:25:38.609Z,75.71
2019-02-05T07:28:11.895Z,75.77
2019-02-05T07:30:45.209Z,75.86
2019-02-05T07:33:18.495Z,75.36
2019-02-05T07:35:51.786Z,75.21
2019-02-05T07:38:25.079Z,75.55
2019-02-05T07:40:58.433Z,74.87
2019-02-05T07:43:31.702Z,74.63
2019-02-05T07:46:05.393Z,74.71
2019-02-05T07:48:39.056Z,74.16
2019-02-05T07:51:12.925Z,74.03
2019-02-05T07:53:47.030Z,73.99
2019-02-05T07:56:20.331Z,73.78
2019-02-05T07:58:53.608Z,73.68
2019-02-05T08:01:26.917Z,73.73
2019-02-05T08:04:00.254Z,73.29
2019-02-05T08:06:33.557Z,73.03
2019-02-05T08:09:08.859Z,72.44
2019-02-05T08:11:42.525Z,72.48
2019-02-05T08:14:15.962Z,72.36
2019-02-05T08:16:49.253Z,72.32
2019-02-05T08:19:22.526Z,71.83
2019-02-05T08:21:55.827Z,71.94
2019-02-05T08:24:29.113Z,71.74
2019-02-05T08:27:02.411Z,71.96
2019-02-05T08:29:35.714Z,72.01
2019-02-05T08:32:09.024Z,71.90
2019-02-05T08:34:42.301Z,71.47
2019-02-05T08:37:15.604Z,71.89
2019-02-05T08:39:48.881Z,71.32
2019-02-05T08:42:22.169Z,71.55
2019-02-05T08:44:56.631Z,71.50
2019-02-05T08:47:29.940Z,71.23
2019-02-05T08:50:05.895Z,71.02
2019-02-05T08:52:39.188Z,70.81
2019-02-05T08:55:15.121Z,70.60
2019-02-05T08:57:50.561Z,71.00
2019-02-05T09:00:25.900Z,69.92
2019-02-05T09:02:59.262Z,69.69
2019-02-05T09:05:32.685Z,69.13
2019-02-05T09:08:06.113Z,69.88
2019-02-05T09:10:41.365Z,69.47
2019-02-05T09:13:14.934Z,68.99
2019-02-05T09:15:48.213Z,69.18
2019-02-05T09:18:21.502Z,68.68
2019-02-05T09:20:54.763Z,69.02
2019-02-05T09:23:28.130Z,68.12
2019-02-05T09:26:01.782Z,67.83
2019-02-05T09:28:35.090Z,67.40
2019-02-05T09:31:08.485Z,68.49
2019-02-05T09:33:41.845Z,67.36
2019-02-05T09:36:15.149Z,67.29
2019-02-05T09:38:48.410Z,66.72
2019-02-05T09:41:21.709Z,66.71
2019-02-05T09:43:55.043Z,67.44
2019-02-05T09:46:28.349Z,66.65
2019-02-05T09:49:01.625Z,66.36
2019-02-05T09:51:34.913Z,65.88
2019-02-05T09:54:08.180Z,67.06
2019-02-05T09:56:41.477Z,65.86
2019-02-05T09:59:14.760Z,65.42
2019-02-05T10:01:48.328Z,64.76
2019-02-05T10:04:21.637Z,65.34
2019-02-05T10:06:55.403Z,65.42
2019-02-05T10:09:28.767Z,65.95
2019-02-05T10:12:02.060Z,65.59
2019-02-05T10:14:35.893Z,65.24
2019-02-05T10:17:09.194Z,65.06
2019-02-05T10:19:42.479Z,64.41
2019-02-05T10:22:15.886Z,64.67
2019-02-05T10:24:49.915Z,65.12
2019-02-05T10:27:23.462Z,64.85
2019-02-05T10:29:59.528Z,64.11
2019-02-05T10:32:31.790Z,64.96
2019-02-05T10:35:07.522Z,64.98
2019-02-05T10:37:41.082Z,63.83
2019-02-05T10:40:14.601Z,64.07
2019-02-05T10:42:47.993Z,63.61
2019-02-05T10:45:23.371Z,63.82
2019-02-05T10:47:57.550Z,63.64
2019-02-05T10:50:31.115Z,63.66
2019-02-05T10:53:04.685Z,63.17
2019-02-05T10:55:37.966Z,62.47
2019-02-05T10:58:12.227Z,62.54
2019-02-05T11:00:45.508Z,62.86
2019-02-05T11:03:18.873Z,62.27
2019-02-05T11:05:52.161Z,61.92
2019-02-05T11:08:25.628Z,61.00
2019-02-05T11:10:58.930Z,61.68
2019-02-05T11:13:32.247Z,61.75
2019-02-05T11:16:05.510Z,62.48
2019-02-05T11:18:38.823Z,61.51
2019-02-05T11:21:12.203Z,62.09
2019-02-05T11:23:45.487Z,60.45
2019-02-05T11:26:19.220Z,61.69
2019-02-05T11:28:52.524Z,61.68
2019-02-05T11:31:25.830Z,61.53
2019-02-05T11:33:59.130Z,61.31
2019-02-05T11:36:32.454Z,62.01
2019-02-05T11:39:09.196Z,61.38
2019-02-05T11:41:42.474Z,60.43
2019-02-05T11:44:15.768Z,59.68
2019-02-05T11:46:49.119Z,59.38
2019-02-05T11:49:22.468Z,59.55
2019-02-05T11:51:55.831Z,58.28
2019-02-05T11:54:29.142Z,58.83
2019-02-05T11:57:02.421Z,59.00
2019-02-05T11:59:35.789Z,58.73
2019-02-05T12:02:09.634Z,58.45
2019-02-05T12:04:42.960Z,58.01
2019-02-05T12:07:16.250Z,57.56
2019-02-05T12:09:49.662Z,56.93
2019-02-05T12:12:22.942Z,57.07
2019-02-05T12:14:56.616Z,55.52
2019-02-05T12:17:31.026Z,56.48
2019-02-05T12:20:07.959Z,55.14
2019-02-05T12:22:41.298Z,54.23
2019-02-05T12:25:17.511Z,51.74
2019-02-05T12:27:50.891Z,51.91
2019-02-05T12:30:26.804Z,53.64
2019-02-05T12:33:01.757Z,54.39
2019-02-05T12:35:35.490Z,54.29
2019-02-05T12:38:09.698Z,55.03
2019-02-05T12:40:43.069Z,55.47
2019-02-05T12:43:16.429Z,54.11
2019-02-05T12:45:49.746Z,55.28
2019-02-05T12:48:23.085Z,54.67
2019-02-05T12:50:56.443Z,53.97
2019-02-05T12:53:29.816Z,52.83
2019-02-05T12:56:03.088Z,53.43
2019-02-05T12:58:36.395Z,53.53
2019-02-05T13:01:09.739Z,53.81
2019-02-05T13:03:43.041Z,54.12
2019-02-05T13:06:16.340Z,53.40
2019-02-05T13:08:49.644Z,51.89
2019-02-05T13:11:22.933Z,50.74
2019-02-05T13:13:56.232Z,50.21
2019-02-05T13:16:29.550Z,50.73
2019-02-05T13:19:03.000Z,50.97
2019-02-05T13:21:36.303Z,52.40
2019-02-05T13:24:09.998Z,52.20
2019-02-05T13:26:43.300Z,52.78
2019-02-05T13:29:16.616Z,51.53
2019-02-05T13:31:49.929Z,52.04
2019-02-05T13:34:23.245Z,52.89
2019-02-05T13:36:56.530Z,51.92
2019-02-05T13:39:29.828Z,50.50
2019-02-05T13:42:03.133Z,51.45
2019-02-05T13:44:36.455Z,51.81
2019-02-05T13:47:09.978Z,51.70
2019-02-05T13:49:43.300Z,51.31
2019-02-05T13:52:16.599Z,51.53
2019-02-05T13:54:49.917Z,53.23
2019-02-05T13:57:23.242Z,53.35
2019-02-05T13:59:56.543Z,52.99
2019-02-05T14:02:29.871Z,52.35
2019-02-05T14:05:03.746Z,52.06
2019-02-05T14:07:37.036Z,51.40
2019-02-05T14:10:28.723Z,51.20
2019-02-05T14:13:02.015Z,51.72
2019-02-05T14:15:43.569Z,52.80
2019-02-05T14:18:16.860Z,54.77
2019-02-05T14:20:50.178Z,53.30
2019-02-05T14:23:23.474Z,54.55
2019-02-05T14:25:59.638Z,54.42
2019-02-05T14:28:31.970Z,53.64
2019-02-05T14:31:05.292Z,53.45
2019-02-05T14:33:38.576Z,53.53
2019-02-05T14:36:11.915Z,53.88
2019-02-05T14:38:45.266Z,53.81
2019-02-05T14:41:18.597Z,54.95
2019-02-05T14:43:51.941Z,54.84
2019-02-05T14:46:25.272Z,54.73
2019-02-05T14:48:58.595Z,54.68
2019-02-05T14:51:32.194Z,54.43
2019-02-05T14:54:05.603Z,54.01
2019-02-05T14:56:38.882Z,54.57
2019-02-05T14:59:12.268Z,54.85
2019-02-05T15:01:45.582Z,55.16
2019-02-05T15:04:18.909Z,54.94
2019-02-05T15:06:53.810Z,55.09
2019-02-05T15:09:27.147Z,54.83
2019-02-05T15:12:00.420Z,55.96
2019-02-05T15:14:33.723Z,54.86
2019-02-05T15:17:07.038Z,56.37
2019-02-05T15:19:40.358Z,56.04
2019-02-05T15:22:13.623Z,56.59
2019-02-05T15:24:47.438Z,55.98
2019-02-05T15:27:20.747Z,56.15
2019-02-05T15:29:54.104Z,56.04
2019-02-05T15:32:47.007Z,56.04
2019-02-05T15:35:20.325Z,56.35
2019-02-05T15:37:53.632Z,55.78
2019-02-05T15:40:27.015Z,56.38
2019-02-05T15:43:00.288Z,56.45
2019-02-05T15:45:33.607Z,56.28
2019-02-05T15:48:06.972Z,55.73
2019-02-05T15:50:40.295Z,57.08
2019-02-05T15:53:15.228Z,55.55
2019-02-05T15:55:48.889Z,56.43
2019-02-05T15:58:22.219Z,54.86
2019-02-05T16:00:55.631Z,54.77
2019-02-05T16:03:28.904Z,55.24
2019-02-05T16:06:02.223Z,56.18
2019-02-05T16:08:35.619Z,55.12
2019-02-05T16:11:09.010Z,55.23
2019-02-05T16:13:42.353Z,56.02
2019-02-05T16:16:15.895Z,56.77
2019-02-05T16:18:49.483Z,57.26
2019-02-05T16:21:22.803Z,57.22
2019-02-05T16:23:58.116Z,57.73
2019-02-05T16:26:31.208Z,58.03
2019-02-05T16:29:04.610Z,58.57
2019-02-05T16:31:37.983Z,59.01
2019-02-05T16:34:11.274Z,58.60
2019-02-05T16:36:44.613Z,59.22
2019-02-05T16:39:17.928Z,60.12
2019-02-05T16:41:51.626Z,59.67
2019-02-05T16:44:24.939Z,60.12
2019-02-05T16:46:58.406Z,59.55
2019-02-05T16:49:31.736Z,59.50
2019-02-05T16:52:05.146Z,59.62
2019-02-05T16:54:39.300Z,60.08
2019-02-05T16:57:12.577Z,60.09
2019-02-05T16:59:45.965Z,60.73
2019-02-05T17:02:28.563Z,60.07
2019-02-05T17:04:54.289Z,61.28
2019-02-05T17:07:27.610Z,61.52
2019-02-05T17:10:00.930Z,61.31
2019-02-05T17:12:34.244Z,59.82
2019-02-05T17:15:10.972Z,59.56
2019-02-05T17:17:44.285Z,59.76
2019-02-05T17:20:20.482Z,61.00
2019-02-05T17:22:53.879Z,60.41
2019-02-05T17:25:28.916Z,60.32
2019-02-05T17:28:04.077Z,60.39
2019-02-05T17:30:39.548Z,59.95
2019-02-05T17:33:12.916Z,59.70
2019-02-05T17:35:46.266Z,59.71
2019-02-05T17:38:19.604Z,59.94
2019-02-05T17:40:54.660Z,60.28
2019-02-05T17:43:28.175Z,59.82
2019-02-05T17:46:01.570Z,60.78
2019-02-05T17:48:34.906Z,61.87
2019-02-05T17:51:08.264Z,62.40
2019-02-05T17:53:41.546Z,62.44
2019-02-05T17:56:14.874Z,63.69
2019-02-05T17:58:48.652Z,62.10
2019-02-05T18:01:21.941Z,63.09
2019-02-05T18:03:55.249Z,62.90
2019-02-05T18:06:28.635Z,63.29
2019-02-05T18:09:01.993Z,63.18
2019-02-05T18:11:35.386Z,63.74
2019-02-05T18:14:08.739Z,63.28
2019-02-05T18:16:45.132Z,63.03
2019-02-05T18:19:17.350Z,63.64
2019-02-05T18:21:50.843Z,64.82
2019-02-05T18:24:25.394Z,63.64
2019-02-05T18:26:58.695Z,63.50
2019-02-05T18:29:32.009Z,64.03
2019-02-05T18:32:05.969Z,63.81
2019-02-05T18:34:39.239Z,65.30
2019-02-05T18:37:13.888Z,64.16
2019-02-05T18:39:47.242Z,64.31
2019-02-05T18:42:20.691Z,64.92
2019-02-05T18:44:54.011Z,65.83
2019-02-05T18:47:27.325Z,63.75
2019-02-05T18:50:00.648Z,66.67
2019-02-05T18:52:34.046Z,64.34
2019-02-05T18:55:10.538Z,64.63
2019-02-05T18:57:44.203Z,65.62
2019-02-05T19:00:20.880Z,66.25
2019-02-05T19:02:54.318Z,66.06
2019-02-05T19:05:28.298Z,65.99
2019-02-05T19:08:01.901Z,67.80
2019-02-05T19:10:35.451Z,65.70
2019-02-05T19:13:08.870Z,67.01
2019-02-05T19:15:43.088Z,67.36
2019-02-05T19:18:16.445Z,66.49
2019-02-05T19:20:49.707Z,67.96
2019-02-05T19:23:23.099Z,66.84
2019-02-05T19:26:03.627Z,66.77
2019-02-05T19:28:37.114Z,67.92
2019-02-05T19:31:12.039Z,68.24
2019-02-05T19:33:46.951Z,67.15
2019-02-05T19:36:20.269Z,67.40
2019-02-05T19:38:53.638Z,68.09
2019-02-05T19:41:26.906Z,67.76
2019-02-05T19:44:00.214Z,67.98
2019-02-05T19:46:38.581Z,68.50
2019-02-05T19:49:21.797Z,67.59
2019-02-05T19:51:51.540Z,67.34
2019-02-05T19:54:25.438Z,67.32
2019-02-05T19:56:58.750Z,67.45
2019-02-05T19:59:32.464Z,67.46
2019-02-05T20:02:06.498Z,67.80
2019-02-05T20:04:39.903Z,67.85
2019-02-05T20:07:13.292Z,68.06
2019-02-05T20:09:46.618Z,68.04
2019-02-05T20:12:19.946Z,68.12
2019-02-05T20:14:53.609Z,68.43
2019-02-05T20:17:27.041Z,68.89
2019-02-05T20:20:00.385Z,70.25
2019-02-05T20:22:33.720Z,69.31
2019-02-05T20:25:09.976Z,68.46
2019-02-05T20:27:43.298Z,69.33
2019-02-05T20:30:24.272Z,69.74
2019-02-05T20:32:57.589Z,70.40
2019-02-05T20:35:30.896Z,70.82
2019-02-05T20:38:04.411Z,71.46
2019-02-05T20:40:37.727Z,71.97
2019-02-05T20:43:11.168Z,72.32
2019-02-05T20:45:44.477Z,72.91
2019-02-05T20:48:18.035Z,73.56
2019-02-05T20:50:51.477Z,74.39
2019-02-05T20:53:25.320Z,75.05
2019-02-05T20:56:00.574Z,75.51
2019-02-05T20:58:33.860Z,76.10
2019-02-05T21:01:07.525Z,76.49
2019-02-05T21:03:42.154Z,76.57
2019-02-05T21:06:15.434Z,76.81
2019-02-05T21:08:49.782Z,76.99
2019-02-05T21:11:23.067Z,76.81
2019-02-05T21:13:56.399Z,77.61
2019-02-05T21:16:29.679Z,77.84
2019-02-05T21:19:02.961Z,78.16
2019-02-05T21:21:36.263Z,78.91
2019-02-05T21:24:09.581Z,79.08
2019-02-05T21:26:42.949Z,79.17
2019-02-05T21:29:16.314Z,79.24
2019-02-05T21:31:49.572Z,79.25
2019-02-05T21:34:22.887Z,79.32
2019-02-05T21:36:56.450Z,79.59
2019-02-05T21:39:29.743Z,79.86
2019-02-05T21:42:03.035Z,80.03
2019-02-05T21:44:37.536Z,80.12
2019-02-05T21:47:10.864Z,80.24
2019-02-05T21:49:44.169Z,80.55
2019-02-05T21:52:18.555Z,81.21
2019-02-05T21:54:51.885Z,82.56
2019-02-05T21:57:25.167Z,83.03
2019-02-05T21:59:59.031Z,81.88
2019-02-05T22:02:32.372Z,81.69
2019-02-05T22:05:08.810Z,82.10
2019-02-05T22:07:42.192Z,82.19
2019-02-05T22:10:15.536Z,82.32
2019-02-05T22:12:48.862Z,82.57
2019-02-05T22:15:23.842Z,82.74
2019-02-05T22:17:57.167Z,83.19
2019-02-05T22:20:32.500Z,85.21
2019-02-05T22:23:05.868Z,84.38
2019-02-05T22:25:39.185Z,84.05
2019-02-05T22:28:12.953Z,84.25
2019-02-05T22:30:46.265Z,83.62
2019-02-05T22:33:19.557Z,83.46
2019-02-05T22:35:52.882Z,83.13
2019-02-05T22:38:26.157Z,83.79
2019-02-05T22:40:59.501Z,83.83
2019-02-05T22:43:32.789Z,84.58
2019-02-05T22:46:06.192Z,84.53
2019-02-05T22:48:39.863Z,84.70
2019-02-05T22:51:13.179Z,85.33
2019-02-05T22:53:46.489Z,85.19
2019-02-05T22:56:20.300Z,85.67
2019-02-05T22:58:54.062Z,84.48
2019-02-05T23:01:33.616Z,83.96
2019-02-05T23:04:09.991Z,84.58
2019-02-05T23:06:50.053Z,85.45
2019-02-05T23:09:41.748Z,85.94
2019-02-05T23:12:31.023Z,86.19
2019-02-05T23:15:13.167Z,86.60
2019-02-05T23:17:46.573Z,86.62
2019-02-05T23:20:19.976Z,86.41
2019-02-05T23:22:57.147Z,86.14
2019-02-05T23:25:31.010Z,86.35
2019-02-05T23:28:04.474Z,85.98
2019-02-05T23:30:37.856Z,85.83
2019-02-05T23:33:11.335Z,86.29
2019-02-05T23:35:44.654Z,86.89
2019-02-05T23:38:19.484Z,87.00
2019-02-05T23:40:52.793Z,87.79
2019-02-05T23:43:26.744Z,87.99
2019-02-05T23:46:01.647Z,87.31
2019-02-05T23:48:35.188Z,86.70
2019-02-05T23:51:08.568Z,86.57
2019-02-05T23:53:41.864Z,86.68
2019-02-05T23:56:25.369Z,86.90
2019-02-05T23:58:50.455Z,86.66
